createdAt,value
2022-08-27T00:00:43.679Z,21.70
2022-08-27T00:03:11.073Z,21.60
2022-08-27T00:05:38.111Z,21.50
2022-08-27T00:08:06.948Z,21.50
2022-08-27T00:10:34.076Z,21.50
2022-08-27T00:13:01.169Z,21.40
2022-08-27T00:15:28.593Z,21.40
2022-08-27T00:17:55.588Z,21.50
2022-08-27T00:20:25.920Z,21.40
2022-08-27T00:22:53.693Z,21.50
2022-08-27T00:25:21.222Z,21.60
2022-08-27T00:27:48.073Z,21.90
2022-08-27T00:30:17.094Z,21.90
2022-08-27T00:32:44.510Z,22.00
2022-08-27T00:35:11.867Z,22.10
2022-08-27T00:37:38.672Z,22.10
2022-08-27T00:40:09.137Z,21.90
2022-08-27T00:42:35.863Z,21.70
2022-08-27T00:45:03.861Z,21.60
2022-08-27T00:47:33.298Z,21.50
2022-08-27T00:50:10.822Z,21.50
2022-08-27T00:52:46.779Z,21.40
2022-08-27T00:55:21.406Z,21.40
2022-08-27T00:58:01.677Z,21.40
2022-08-27T01:00:32.011Z,21.40
2022-08-27T01:02:58.708Z,21.60
2022-08-27T01:05:27.189Z,21.80
2022-08-27T01:07:59.292Z,21.30
2022-08-27T01:10:28.735Z,20.70
2022-08-27T01:12:56.537Z,20.40
2022-08-27T01:15:25.602Z,19.90
2022-08-27T01:17:53.665Z,19.60
2022-08-27T01:20:35.671Z,20.10
2022-08-27T01:23:12.201Z,19.80
2022-08-27T01:25:43.042Z,20.10
2022-08-27T01:28:11.693Z,20.20
2022-08-27T01:30:40.194Z,20.10
2022-08-27T01:33:17.251Z,19.80
2022-08-27T01:35:46.562Z,19.90
2022-08-27T01:38:18.975Z,20.10
2022-08-27T01:40:59.100Z,20.20
2022-08-27T01:43:27.956Z,20.20
2022-08-27T01:45:54.753Z,20.20
2022-08-27T01:48:22.368Z,20.50
2022-08-27T01:50:49.927Z,20.70
2022-08-27T01:53:23.841Z,20.90
2022-08-27T01:55:52.474Z,20.70
2022-08-27T01:58:22.120Z,20.70
2022-08-27T02:00:54.754Z,20.80
2022-08-27T02:03:24.024Z,20.70
2022-08-27T02:05:50.770Z,20.10
2022-08-27T02:08:18.191Z,19.80
2022-08-27T02:10:46.856Z,19.90
2022-08-27T02:13:14.242Z,19.90
2022-08-27T02:15:42.333Z,20.00
2022-08-27T02:18:10.934Z,19.90
2022-08-27T02:20:38.094Z,20.00
2022-08-27T02:23:05.154Z,20.30
2022-08-27T02:25:31.949Z,20.50
2022-08-27T02:28:00.269Z,20.80
2022-08-27T02:30:28.987Z,20.80
2022-08-27T02:32:55.962Z,20.80
2022-08-27T02:35:24.309Z,21.00
2022-08-27T02:37:52.220Z,21.00
2022-08-27T02:40:21.716Z,20.60
2022-08-27T02:42:49.185Z,20.40
2022-08-27T02:45:17.539Z,20.20
2022-08-27T02:47:44.655Z,20.10
2022-08-27T02:50:13.584Z,20.40
2022-08-27T02:52:40.644Z,20.60
2022-08-27T02:55:08.171Z,20.80
2022-08-27T02:57:36.737Z,20.90
2022-08-27T03:00:07.240Z,21.00
2022-08-27T03:02:34.158Z,21.00
2022-08-27T03:05:00.960Z,21.10
2022-08-27T03:07:27.732Z,21.10
2022-08-27T03:09:54.461Z,21.10
2022-08-27T03:12:22.934Z,21.10
2022-08-27T03:14:51.651Z,21.10
2022-08-27T03:17:37.240Z,20.90
2022-08-27T03:20:05.870Z,20.80
2022-08-27T03:22:32.600Z,20.70
2022-08-27T03:25:01.459Z,20.90
2022-08-27T03:27:28.159Z,21.00
2022-08-27T03:29:55.054Z,21.00
2022-08-27T03:32:21.775Z,21.10
2022-08-27T03:34:48.528Z,21.10
2022-08-27T03:37:15.431Z,21.10
2022-08-27T03:39:42.129Z,21.10
2022-08-27T03:42:08.815Z,21.00
2022-08-27T03:44:35.480Z,20.90
2022-08-27T03:47:02.284Z,20.90
2022-08-27T03:49:28.997Z,21.00
2022-08-27T03:51:55.764Z,20.90
2022-08-27T03:54:22.764Z,20.90
2022-08-27T03:56:49.935Z,20.90
2022-08-27T03:59:17.089Z,20.80
2022-08-27T04:01:45.339Z,20.50
2022-08-27T04:04:13.255Z,20.40
2022-08-27T04:06:40.885Z,20.30
2022-08-27T04:09:07.635Z,20.50
2022-08-27T04:11:34.875Z,20.50
2022-08-27T04:14:11.476Z,20.60
2022-08-27T04:16:52.519Z,20.40
2022-08-27T04:19:20.531Z,20.60
2022-08-27T04:21:48.962Z,20.80
2022-08-27T04:24:16.030Z,20.60
2022-08-27T04:26:45.665Z,20.50
2022-08-27T04:29:12.320Z,20.20
2022-08-27T04:31:39.032Z,19.90
2022-08-27T04:34:07.661Z,19.80
2022-08-27T04:36:34.383Z,19.90
2022-08-27T04:39:01.316Z,20.00
2022-08-27T04:41:29.002Z,20.00
2022-08-27T04:43:57.931Z,20.00
2022-08-27T04:46:30.595Z,20.00
2022-08-27T04:49:00.144Z,20.00
2022-08-27T04:51:28.423Z,20.00
2022-08-27T04:53:56.858Z,20.10
2022-08-27T04:56:28.364Z,20.10
2022-08-27T04:58:55.456Z,20.10
2022-08-27T05:01:27.353Z,20.10
2022-08-27T05:03:55.283Z,20.00
2022-08-27T05:06:23.354Z,20.00
2022-08-27T05:08:51.407Z,20.10
2022-08-27T05:11:21.013Z,20.10
2022-08-27T05:13:48.495Z,20.20
2022-08-27T05:16:21.267Z,20.20
2022-08-27T05:18:50.420Z,20.20
2022-08-27T05:21:23.633Z,20.20
2022-08-27T05:23:51.567Z,20.30
2022-08-27T05:26:18.937Z,20.10
2022-08-27T05:28:45.762Z,20.00
2022-08-27T05:31:14.208Z,20.10
2022-08-27T05:33:42.304Z,20.20
2022-08-27T05:36:16.804Z,20.20
2022-08-27T05:38:43.824Z,20.10
2022-08-27T05:41:15.920Z,20.10
2022-08-27T05:43:47.715Z,20.00
2022-08-27T05:46:19.103Z,20.10
2022-08-27T05:48:46.435Z,20.10
2022-08-27T05:51:25.268Z,20.30
2022-08-27T05:53:56.464Z,20.30
2022-08-27T05:56:25.397Z,20.40
2022-08-27T05:59:10.569Z,20.40
2022-08-27T06:01:41.546Z,20.40
2022-08-27T06:04:09.879Z,20.50
2022-08-27T06:06:39.197Z,20.50
2022-08-27T06:09:07.131Z,20.70
2022-08-27T06:11:35.538Z,20.80
2022-08-27T06:14:02.845Z,20.80
2022-08-27T06:16:29.667Z,20.90
2022-08-27T06:18:59.544Z,21.00
2022-08-27T06:21:26.740Z,21.00
2022-08-27T06:23:54.742Z,21.10
2022-08-27T06:26:23.803Z,21.00
2022-08-27T06:28:50.970Z,21.00
2022-08-27T06:31:19.861Z,20.90
2022-08-27T06:33:47.378Z,20.90
2022-08-27T06:36:17.100Z,21.00
2022-08-27T06:38:44.487Z,21.00
2022-08-27T06:41:16.302Z,20.90
2022-08-27T06:43:51.041Z,20.70
2022-08-27T06:46:19.321Z,20.50
2022-08-27T06:48:47.171Z,20.40
2022-08-27T06:51:17.870Z,20.50
2022-08-27T06:53:47.256Z,20.60
2022-08-27T06:56:15.648Z,20.80
2022-08-27T06:58:42.778Z,20.90
2022-08-27T07:01:28.209Z,21.00
2022-08-27T07:03:59.771Z,20.70
2022-08-27T07:06:29.389Z,20.50
2022-08-27T07:08:57.061Z,20.70
2022-08-27T07:11:24.799Z,20.40
2022-08-27T07:13:51.921Z,20.20
2022-08-27T07:16:23.229Z,20.20
2022-08-27T07:18:55.268Z,20.30
2022-08-27T07:21:22.926Z,20.50
2022-08-27T07:23:51.565Z,20.50
2022-08-27T07:26:20.177Z,20.70
2022-08-27T07:28:47.191Z,20.50
2022-08-27T07:31:20.767Z,20.40
2022-08-27T07:33:52.709Z,20.60
2022-08-27T07:36:21.122Z,20.60
2022-08-27T07:38:56.839Z,20.60
2022-08-27T07:41:30.264Z,20.60
2022-08-27T07:44:19.800Z,20.70
2022-08-27T07:46:48.999Z,20.70
2022-08-27T07:49:17.524Z,20.80
2022-08-27T07:51:45.086Z,20.70
2022-08-27T07:54:12.118Z,20.80
2022-08-27T07:56:39.053Z,20.70
2022-08-27T07:59:05.744Z,20.70
2022-08-27T08:01:32.844Z,20.70
2022-08-27T08:03:59.657Z,20.40
2022-08-27T08:06:26.450Z,20.40
2022-08-27T08:08:53.240Z,20.60
2022-08-27T08:11:20.566Z,20.80
2022-08-27T08:13:47.972Z,20.60
2022-08-27T08:16:15.818Z,20.60
2022-08-27T08:18:42.621Z,20.80
2022-08-27T08:21:12.209Z,20.80
2022-08-27T08:23:39.759Z,20.90
2022-08-27T08:26:07.280Z,20.70
2022-08-27T08:28:34.745Z,20.70
2022-08-27T08:31:01.656Z,21.00
2022-08-27T08:33:31.394Z,21.30
2022-08-27T08:36:10.489Z,21.20
2022-08-27T08:38:38.630Z,21.00
2022-08-27T08:41:07.384Z,21.20
2022-08-27T08:43:42.214Z,21.20
2022-08-27T08:46:36.767Z,21.40
2022-08-27T08:49:24.994Z,21.30
2022-08-27T08:51:55.264Z,21.10
2022-08-27T08:54:24.525Z,21.10
2022-08-27T08:57:18.661Z,21.20
2022-08-27T08:59:54.860Z,21.40
2022-08-27T09:02:21.602Z,21.20
2022-08-27T09:04:48.317Z,21.40
2022-08-27T09:07:20.692Z,21.60
2022-08-27T09:10:01.389Z,21.40
2022-08-27T09:12:31.103Z,21.20
2022-08-27T09:15:14.282Z,21.20
2022-08-27T09:17:42.139Z,21.30
2022-08-27T09:20:13.264Z,21.40
2022-08-27T09:22:50.903Z,21.50
2022-08-27T09:25:31.712Z,21.60
2022-08-27T09:28:01.513Z,21.60
2022-08-27T09:30:32.240Z,21.60
2022-08-27T09:33:04.372Z,21.50
2022-08-27T09:35:45.549Z,21.50
2022-08-27T09:38:26.999Z,21.50
2022-08-27T09:40:55.997Z,21.40
2022-08-27T09:43:26.969Z,21.40
2022-08-27T09:46:02.456Z,21.30
2022-08-27T09:48:32.292Z,21.00
2022-08-27T09:51:02.691Z,21.10
2022-08-27T09:53:40.289Z,21.10
2022-08-27T09:56:09.646Z,21.30
2022-08-27T09:58:52.594Z,21.10
2022-08-27T10:01:26.162Z,20.90
2022-08-27T10:04:15.529Z,20.80
2022-08-27T10:06:49.045Z,20.70
2022-08-27T10:09:35.593Z,20.50
2022-08-27T10:12:17.921Z,20.50
2022-08-27T10:14:50.173Z,20.80
2022-08-27T10:17:36.060Z,20.80
2022-08-27T10:20:25.781Z,20.50
2022-08-27T10:23:27.128Z,20.50
2022-08-27T10:26:12.800Z,20.50
2022-08-27T10:28:51.938Z,20.60
2022-08-27T10:31:45.637Z,20.50
2022-08-27T10:34:27.408Z,20.60
2022-08-27T10:37:25.039Z,20.50
2022-08-27T10:40:08.289Z,20.70
2022-08-27T10:42:57.530Z,20.60
2022-08-27T10:45:55.352Z,20.40
2022-08-27T10:48:27.279Z,20.40
2022-08-27T10:51:11.240Z,20.30
2022-08-27T10:54:01.003Z,20.40
2022-08-27T10:57:03.645Z,20.50
2022-08-27T10:59:51.419Z,20.60
2022-08-27T11:02:40.223Z,20.90
2022-08-27T11:05:24.112Z,20.90
2022-08-27T11:08:01.334Z,20.50
2022-08-27T11:10:44.255Z,20.50
2022-08-27T11:13:19.671Z,20.40
2022-08-27T11:15:49.409Z,20.70
2022-08-27T11:18:34.927Z,20.70
2022-08-27T11:21:16.583Z,20.70
2022-08-27T11:23:45.520Z,21.10
2022-08-27T11:26:13.433Z,21.20
2022-08-27T11:28:43.342Z,21.00
2022-08-27T11:31:36.591Z,21.10
2022-08-27T11:34:19.094Z,21.00
2022-08-27T11:37:15.958Z,21.10
2022-08-27T11:39:49.794Z,21.20
2022-08-27T11:42:36.083Z,21.20
2022-08-27T11:45:29.753Z,21.50
2022-08-27T11:47:58.762Z,21.60
2022-08-27T11:50:27.477Z,21.60
2022-08-27T11:53:00.669Z,21.60
2022-08-27T11:55:30.385Z,21.60
2022-08-27T11:58:21.824Z,21.40
2022-08-27T12:00:49.183Z,21.40
2022-08-27T12:03:21.844Z,21.40
2022-08-27T12:06:22.390Z,21.70
2022-08-27T12:08:49.155Z,21.70
2022-08-27T12:11:41.782Z,21.70
2022-08-27T12:14:36.187Z,22.10
2022-08-27T12:17:08.895Z,22.00
2022-08-27T12:20:02.387Z,22.20
2022-08-27T12:23:21.263Z,22.20
2022-08-27T12:26:13.335Z,22.00
2022-08-27T12:28:39.981Z,22.00
2022-08-27T12:31:07.201Z,22.10
2022-08-27T12:33:43.389Z,22.20
2022-08-27T12:36:27.699Z,22.10
2022-08-27T12:38:58.242Z,22.20
2022-08-27T12:41:44.322Z,22.20
2022-08-27T12:44:23.338Z,22.40
2022-08-27T12:46:59.256Z,22.30
2022-08-27T12:49:38.498Z,22.90
2022-08-27T12:52:33.203Z,23.00
2022-08-27T12:55:12.062Z,22.60
2022-08-27T12:58:15.698Z,22.40
2022-08-27T13:01:07.843Z,23.00
2022-08-27T13:03:39.233Z,22.80
2022-08-27T13:06:36.099Z,23.50
2022-08-27T13:09:06.584Z,23.50
2022-08-27T13:11:43.088Z,23.70
2022-08-27T13:14:17.014Z,23.50
2022-08-27T13:16:53.948Z,23.40
2022-08-27T13:19:34.390Z,23.70
2022-08-27T13:22:01.522Z,23.90
2022-08-27T13:24:44.160Z,24.20
2022-08-27T13:27:11.333Z,24.30
2022-08-27T13:29:39.070Z,24.30
2022-08-27T13:32:06.053Z,24.20
2022-08-27T13:34:37.615Z,24.20
2022-08-27T13:37:08.014Z,23.90
2022-08-27T13:39:37.480Z,23.80
2022-08-27T13:42:07.452Z,24.10
2022-08-27T13:44:37.267Z,24.10
2022-08-27T13:47:08.266Z,23.90
2022-08-27T13:49:39.686Z,24.00
2022-08-27T13:52:25.194Z,24.00
2022-08-27T13:55:22.345Z,24.30
2022-08-27T13:57:51.830Z,24.60
2022-08-27T14:00:20.701Z,24.70
2022-08-27T14:02:55.830Z,24.30
2022-08-27T14:05:23.240Z,24.00
2022-08-27T14:07:54.264Z,24.20
2022-08-27T14:10:47.428Z,24.40
2022-08-27T14:13:23.794Z,24.40
2022-08-27T14:15:56.779Z,24.80
2022-08-27T14:18:55.006Z,24.60
2022-08-27T14:21:18.092Z,24.70
2022-08-27T14:23:44.857Z,24.50
2022-08-27T14:26:14.742Z,24.50
2022-08-27T14:28:42.572Z,24.50
2022-08-27T14:31:11.705Z,24.70
2022-08-27T14:33:38.686Z,24.90
2022-08-27T14:36:06.620Z,25.00
2022-08-27T14:38:35.673Z,25.00
2022-08-27T14:41:02.449Z,24.70
2022-08-27T14:43:34.576Z,25.20
2022-08-27T14:46:02.941Z,25.10
2022-08-27T14:48:33.180Z,24.90
2022-08-27T14:51:02.753Z,25.00
2022-08-27T14:53:29.644Z,24.60
2022-08-27T14:55:58.852Z,24.60
2022-08-27T14:58:25.943Z,24.50
2022-08-27T15:00:55.263Z,24.90
2022-08-27T15:03:25.399Z,24.60
2022-08-27T15:05:56.134Z,24.60
2022-08-27T15:08:27.669Z,24.80
2022-08-27T15:10:56.828Z,24.60
2022-08-27T15:13:24.104Z,24.80
2022-08-27T15:15:52.163Z,25.00
2022-08-27T15:18:19.213Z,25.50
2022-08-27T15:20:46.068Z,25.30
2022-08-27T15:23:13.912Z,24.50
2022-08-27T15:25:41.433Z,24.50
2022-08-27T15:28:08.320Z,24.70
2022-08-27T15:30:36.919Z,24.80
2022-08-27T15:33:06.136Z,25.00
2022-08-27T15:35:33.273Z,24.70
2022-08-27T15:38:00.647Z,24.60
2022-08-27T15:40:30.810Z,24.70
2022-08-27T15:43:04.340Z,24.70
2022-08-27T15:45:32.299Z,24.60
2022-08-27T15:47:59.922Z,24.40
2022-08-27T15:50:28.520Z,24.60
2022-08-27T15:52:59.238Z,24.60
2022-08-27T15:55:30.128Z,24.80
2022-08-27T15:57:56.961Z,25.10
2022-08-27T16:00:25.011Z,24.70
2022-08-27T16:02:52.428Z,24.50
2022-08-27T16:05:20.464Z,24.20
2022-08-27T16:07:47.607Z,24.60
2022-08-27T16:10:15.058Z,24.50
2022-08-27T16:12:41.845Z,24.40
2022-08-27T16:15:09.075Z,24.50
2022-08-27T16:17:36.537Z,24.30
2022-08-27T16:20:04.385Z,24.30
2022-08-27T16:22:31.051Z,24.30
2022-08-27T16:24:57.697Z,24.50
2022-08-27T16:27:24.830Z,24.30
2022-08-27T16:29:51.497Z,24.20
2022-08-27T16:32:19.190Z,24.20
2022-08-27T16:34:47.427Z,24.40
2022-08-27T16:37:22.085Z,24.20
2022-08-27T16:39:48.848Z,24.30
2022-08-27T16:42:15.590Z,24.30
2022-08-27T16:44:42.822Z,24.20
2022-08-27T16:47:09.596Z,24.00
2022-08-27T16:49:55.045Z,24.00
2022-08-27T16:52:23.735Z,24.10
2022-08-27T16:54:51.711Z,24.20
2022-08-27T16:57:18.568Z,24.50
2022-08-27T16:59:45.263Z,24.20
2022-08-27T17:02:22.417Z,24.30
2022-08-27T17:05:01.381Z,24.30
2022-08-27T17:07:40.386Z,24.00
2022-08-27T17:10:15.844Z,23.90
2022-08-27T17:12:46.214Z,24.20
2022-08-27T17:15:14.534Z,23.90
2022-08-27T17:17:41.981Z,23.90
2022-08-27T17:20:09.129Z,23.60
2022-08-27T17:22:35.985Z,23.50
2022-08-27T17:25:02.713Z,23.50
2022-08-27T17:27:29.963Z,23.50
2022-08-27T17:29:56.718Z,23.50
2022-08-27T17:32:23.541Z,23.50
2022-08-27T17:34:50.247Z,23.60
2022-08-27T17:37:17.199Z,23.70
2022-08-27T17:39:45.714Z,23.40
2022-08-27T17:42:12.535Z,23.30
2022-08-27T17:44:39.321Z,23.30
2022-08-27T17:47:07.938Z,23.30
2022-08-27T17:49:35.083Z,23.30
2022-08-27T17:52:09.620Z,23.20
2022-08-27T17:54:45.025Z,23.20
2022-08-27T17:57:20.211Z,23.00
2022-08-27T17:59:47.039Z,23.00
2022-08-27T18:02:53.619Z,23.20
2022-08-27T18:05:23.028Z,23.20
2022-08-27T18:07:50.515Z,23.10
2022-08-27T18:10:20.484Z,23.00
2022-08-27T18:12:47.333Z,22.80
2022-08-27T18:15:17.287Z,22.80
2022-08-27T18:17:44.029Z,22.70
2022-08-27T18:20:13.287Z,22.70
2022-08-27T18:22:40.741Z,22.60
2022-08-27T18:25:08.598Z,22.50
2022-08-27T18:27:37.431Z,22.50
2022-08-27T18:30:05.404Z,22.50
2022-08-27T18:32:32.185Z,22.40
2022-08-27T18:35:03.100Z,22.30
2022-08-27T18:37:29.886Z,22.30
2022-08-27T18:39:56.631Z,22.20
2022-08-27T18:42:23.450Z,22.20
2022-08-27T18:44:50.204Z,22.20
2022-08-27T18:47:16.853Z,22.30
2022-08-27T18:49:43.522Z,22.30
2022-08-27T18:52:12.158Z,22.20
2022-08-27T18:54:41.047Z,22.00
2022-08-27T18:57:07.802Z,21.90
2022-08-27T18:59:34.541Z,21.90
2022-08-27T19:02:02.233Z,21.80
2022-08-27T19:04:31.720Z,21.70
2022-08-27T19:06:58.405Z,21.50
2022-08-27T19:09:26.190Z,21.40
2022-08-27T19:11:53.031Z,21.20
2022-08-27T19:14:19.769Z,21.20
2022-08-27T19:16:50.597Z,21.10
2022-08-27T19:19:18.148Z,21.10
2022-08-27T19:21:49.273Z,21.20
2022-08-27T19:24:19.955Z,21.20
2022-08-27T19:26:47.450Z,21.20
2022-08-27T19:29:14.338Z,21.10
2022-08-27T19:31:41.152Z,21.00
2022-08-27T19:34:09.367Z,20.90
2022-08-27T19:36:40.726Z,20.90
2022-08-27T19:39:10.424Z,21.00
2022-08-27T19:41:37.183Z,20.90
2022-08-27T19:44:03.975Z,20.90
2022-08-27T19:46:32.701Z,20.90
2022-08-27T19:48:59.381Z,20.90
2022-08-27T19:51:26.041Z,21.00
2022-08-27T19:53:52.924Z,21.00
2022-08-27T19:56:20.123Z,21.00
2022-08-27T19:58:47.316Z,20.90
2022-08-27T20:01:14.195Z,20.90
2022-08-27T20:03:41.266Z,20.90
2022-08-27T20:06:08.370Z,21.00
2022-08-27T20:08:35.187Z,21.00
2022-08-27T20:11:01.899Z,21.00
2022-08-27T20:13:32.873Z,20.90
2022-08-27T20:16:00.406Z,20.90
2022-08-27T20:18:27.181Z,20.80
2022-08-27T20:20:53.976Z,20.80
2022-08-27T20:23:21.349Z,20.90
2022-08-27T20:25:48.117Z,20.90
2022-08-27T20:28:38.303Z,20.90
2022-08-27T20:31:02.322Z,20.70
2022-08-27T20:33:29.351Z,20.70
2022-08-27T20:35:58.727Z,20.70
2022-08-27T20:38:25.911Z,20.80
2022-08-27T20:40:52.557Z,20.70
2022-08-27T20:43:19.756Z,20.70
2022-08-27T20:45:46.876Z,20.60
2022-08-27T20:48:13.983Z,20.60
2022-08-27T20:50:40.834Z,20.60
2022-08-27T20:53:07.736Z,20.50
2022-08-27T20:55:34.867Z,20.40
2022-08-27T20:58:20.015Z,20.30
2022-08-27T21:00:46.811Z,20.40
2022-08-27T21:03:14.705Z,20.50
2022-08-27T21:05:43.583Z,20.40
2022-08-27T21:08:10.325Z,20.40
2022-08-27T21:10:43.923Z,20.40
2022-08-27T21:13:12.471Z,20.50
2022-08-27T21:15:39.525Z,20.40
2022-08-27T21:18:06.270Z,20.40
2022-08-27T21:20:33.553Z,20.40
2022-08-27T21:23:00.640Z,20.40
2022-08-27T21:25:28.273Z,20.50
2022-08-27T21:28:00.846Z,20.50
2022-08-27T21:30:27.842Z,20.50
2022-08-27T21:32:55.897Z,20.50
2022-08-27T21:35:27.281Z,20.60
2022-08-27T21:37:59.412Z,20.60
2022-08-27T21:40:28.226Z,20.60
2022-08-27T21:42:57.207Z,20.50
2022-08-27T21:45:24.498Z,20.40
2022-08-27T21:47:54.373Z,20.30
2022-08-27T21:50:23.086Z,20.20
2022-08-27T21:52:49.962Z,20.20
2022-08-27T21:55:18.005Z,20.10
2022-08-27T21:57:44.978Z,20.20
2022-08-27T22:00:29.759Z,20.20
2022-08-27T22:02:57.034Z,20.20
2022-08-27T22:05:24.583Z,20.20
2022-08-27T22:07:51.321Z,20.20
2022-08-27T22:10:18.287Z,20.30
2022-08-27T22:12:45.065Z,20.20
2022-08-27T22:15:11.923Z,20.30
2022-08-27T22:17:38.652Z,20.40
2022-08-27T22:20:08.246Z,20.20
2022-08-27T22:22:35.539Z,20.30
2022-08-27T22:25:03.028Z,20.40
2022-08-27T22:27:29.749Z,20.30
2022-08-27T22:29:56.485Z,20.30
2022-08-27T22:32:23.207Z,20.50
2022-08-27T22:34:49.980Z,20.70
2022-08-27T22:37:16.923Z,20.60
2022-08-27T22:39:43.622Z,20.40
2022-08-27T22:42:13.919Z,20.20
2022-08-27T22:44:43.625Z,20.20
2022-08-27T22:47:10.443Z,20.30
2022-08-27T22:49:37.150Z,20.20
2022-08-27T22:52:03.887Z,20.20
2022-08-27T22:54:30.605Z,20.10
2022-08-27T22:56:57.285Z,20.00
2022-08-27T22:59:23.993Z,20.10
2022-08-27T23:01:51.465Z,20.00
2022-08-27T23:04:18.564Z,20.10
2022-08-27T23:06:45.388Z,19.90
2022-08-27T23:09:12.115Z,19.80
2022-08-27T23:11:38.915Z,20.00
2022-08-27T23:14:05.638Z,20.00
2022-08-27T23:16:32.642Z,20.10
2022-08-27T23:18:59.339Z,20.20
2022-08-27T23:21:26.185Z,20.30
2022-08-27T23:23:52.936Z,20.10
2022-08-27T23:26:38.087Z,19.90
2022-08-27T23:29:05.429Z,19.80
2022-08-27T23:31:32.853Z,19.80
2022-08-27T23:33:59.730Z,19.70
2022-08-27T23:36:26.417Z,19.70
2022-08-27T23:38:53.132Z,19.70
2022-08-27T23:41:19.876Z,19.70
2022-08-27T23:43:46.731Z,19.70
2022-08-27T23:46:13.613Z,19.70
2022-08-27T23:48:40.723Z,19.70
2022-08-27T23:51:08.707Z,19.70
2022-08-27T23:53:37.029Z,19.60
2022-08-27T23:56:04.841Z,19.60
2022-08-27T23:58:32.676Z,19.50
